Time;durP1;ratioP1;P1;durP2;ratioP2;P2;SDS_P1;SDS_P2;PMS_P1;PMS_P2;Temp;Humidity;BMP_temperature;BMP_pressure;BME280_temperature;BME280_humidity;BME280_pressure;Samples;Min_cycle;Max_cycle;Signal;HPM_P1;HPM_P2
2022/11/06 00:01:31;;;;;;;141.10;79.25;;;;;;;10.98;66.03;99074.25;5011737;28;20112;-68
2022/11/06 00:03:57;;;;;;;134.27;77.88;;;;;;;10.94;66.25;99069.38;5012057;28;20034;-68
2022/11/06 00:09:10;;;;;;;130.35;74.43;;;;;;;10.69;67.98;99065.69;5011340;28;20103;-67
2022/11/06 00:11:36;;;;;;;137.95;74.45;;;;;;;10.78;68.02;99068.38;5026830;28;20026;-67
2022/11/06 00:14:02;;;;;;;130.85;77.93;;;;;;;10.85;67.74;99067.81;5011141;28;20038;-67
2022/11/06 00:16:27;;;;;;;135.32;77.75;;;;;;;10.77;67.32;99069.56;4994098;28;20029;-67
2022/11/06 00:18:53;;;;;;;138.35;80.35;;;;;;;10.92;67.53;99068.06;5011044;28;20034;-67
2022/11/06 00:21:25;;;;;;;140.63;81.43;;;;;;;10.97;67.23;99092.22;5011717;28;20101;-68
2022/11/06 00:23:51;;;;;;;144.82;81.55;;;;;;;11.02;66.34;99078.81;4993893;28;20421;-68
2022/11/06 00:26:22;;;;;;;133.45;79.25;;;;;;;10.72;67.88;99089.38;5011558;28;20045;-68
2022/11/06 00:28:48;;;;;;;134.20;75.30;;;;;;;10.83;67.74;99076.56;5010879;28;20103;-67
2022/11/06 00:31:19;;;;;;;123.88;70.75;;;;;;;10.78;68.18;99074.81;4993894;28;20472;-67
2022/11/06 00:33:46;;;;;;;143.05;75.32;;;;;;;10.71;68.53;99068.16;4993805;28;20144;-68
2022/11/06 00:36:17;;;;;;;141.18;72.10;;;;;;;10.65;69.41;99067.56;4993569;28;20088;-67
2022/11/06 00:38:43;;;;;;;117.53;68.60;;;;;;;10.62;69.90;99079.44;5010275;28;20131;-67
2022/11/06 00:41:14;;;;;;;121.78;68.32;;;;;;;10.73;68.98;99080.59;4993357;28;20125;-67
2022/11/06 00:43:39;;;;;;;119.68;69.68;;;;;;;10.53;68.83;99073.91;5011201;28;20026;-67
2022/11/06 00:46:10;;;;;;;119.90;67.90;;;;;;;10.33;69.43;99078.34;5011077;28;20049;-67
2022/11/06 00:48:36;;;;;;;117.22;66.13;;;;;;;10.56;68.61;99090.03;5010289;28;20049;-67
2022/11/06 00:51:04;;;;;;;109.68;65.88;;;;;;;10.57;68.24;99079.63;4996008;28;20420;-67
2022/11/06 00:53:30;;;;;;;113.45;67.82;;;;;;;10.14;69.82;99084.44;5011309;28;20030;-67
2022/11/06 00:56:22;;;;;;;118.78;69.38;;;;;;;10.20;70.48;99088.69;4993503;28;20025;-67
2022/11/06 00:58:48;;;;;;;109.82;64.57;;;;;;;10.42;69.02;99100.66;5009827;28;20042;-67
2022/11/06 01:01:21;;;;;;;107.85;67.28;;;;;;;10.60;68.38;99092.94;5009252;28;20034;-67
2022/11/06 01:03:56;;;;;;;117.20;67.38;;;;;;;10.20;69.40;99097.06;5002312;28;20033;-67
2022/11/06 01:06:24;;;;;;;113.03;66.20;;;;;;;10.23;69.46;99088.78;5010901;28;20045;-67
2022/11/06 01:08:50;;;;;;;120.95;65.95;;;;;;;10.08;70.70;99081.03;5010395;28;20025;-67
2022/11/06 01:11:28;;;;;;;111.97;64.70;;;;;;;10.30;69.17;99084.63;4992413;28;20029;-67
2022/11/06 01:13:56;;;;;;;113.63;64.35;;;;;;;10.44;68.95;99090.78;5011194;28;20021;-67
2022/11/06 01:16:23;;;;;;;116.85;64.65;;;;;;;10.56;68.61;99094.78;5009952;28;20033;-67
2022/11/06 01:18:49;;;;;;;104.40;63.47;;;;;;;10.51;68.33;99105.03;5010209;28;20408;-67
2022/11/06 01:21:21;;;;;;;113.32;65.05;;;;;;;10.50;68.74;99088.59;5010883;28;20092;-67
2022/11/06 01:23:50;;;;;;;107.00;61.88;;;;;;;10.57;68.20;99097.25;4993167;28;20041;-67
2022/11/06 01:26:16;;;;;;;109.32;63.33;;;;;;;10.20;69.90;99086.69;5011085;28;20390;-67
2022/11/06 01:28:41;;;;;;;107.57;59.70;;;;;;;10.28;69.81;99090.56;4991621;28;20033;-67
2022/11/06 01:31:10;;;;;;;112.25;64.90;;;;;;;10.06;71.02;99086.16;5010999;28;20022;-67
2022/11/06 01:33:36;;;;;;;98.45;61.53;;;;;;;10.15;70.47;99086.06;5009111;28;20109;-67
2022/11/06 01:36:01;;;;;;;99.07;59.30;;;;;;;9.98;72.03;99091.44;4992308;28;20034;-67
2022/11/06 01:38:27;;;;;;;98.93;58.17;;;;;;;9.95;71.52;99088.50;5009884;28;20061;-67
2022/11/06 01:40:52;;;;;;;87.00;53.25;;;;;;;10.22;70.50;99092.75;5010049;28;20026;-67
2022/11/06 01:43:42;;;;;;;97.18;56.90;;;;;;;9.98;70.52;99088.66;5010472;28;20018;-67
2022/11/06 01:46:07;;;;;;;88.05;54.85;;;;;;;10.07;70.49;99079.41;5010783;28;20037;-67
2022/11/06 01:48:33;;;;;;;99.45;56.72;;;;;;;10.05;70.06;99090.09;4992818;28;20152;-67
2022/11/06 01:50:59;;;;;;;88.45;56.90;;;;;;;10.19;68.99;99079.47;5011268;28;20105;-67
2022/11/06 01:53:26;;;;;;;101.95;57.13;;;;;;;10.23;69.04;99074.81;5014436;28;20088;-67
2022/11/06 01:55:55;;;;;;;104.03;58.25;;;;;;;10.35;68.88;99067.63;5014446;28;20050;-67
2022/11/06 01:58:23;;;;;;;118.10;58.28;;;;;;;10.39;68.97;99074.19;5014151;28;20057;-67
2022/11/06 02:00:49;;;;;;;91.10;53.97;;;;;;;10.28;68.40;99067.41;4995663;28;20034;-67
2022/11/06 02:03:15;;;;;;;101.97;58.95;;;;;;;10.28;68.88;99073.78;4995788;28;20412;-67
2022/11/06 02:05:42;;;;;;;101.57;57.75;;;;;;;10.40;68.60;99068.25;5014296;28;20030;-67
2022/11/06 02:08:10;;;;;;;114.72;60.80;;;;;;;10.27;68.36;99071.34;5029264;28;20033;-67
2022/11/06 02:10:36;;;;;;;91.47;53.85;;;;;;;9.75;70.57;99071.44;5013326;28;20409;-67
2022/11/06 02:13:32;;;;;;;89.57;55.60;;;;;;;10.07;69.49;99079.41;5013703;28;20488;-67
2022/11/06 02:16:10;;;;;;;95.78;58.53;;;;;;;10.19;68.65;99073.03;4996423;28;20053;-67
2022/11/06 02:18:52;;;;;;;99.93;56.90;;;;;;;10.29;68.05;99075.41;4996340;28;20033;-67
2022/11/06 02:21:56;;;;;;;103.22;59.45;;;;;;;10.32;67.99;99073.94;4994532;28;20053;-68
2022/11/06 02:24:24;;;;;;;104.57;57.92;;;;;;;10.28;67.50;99070.19;4952728;29;20050;-68
2022/11/06 02:27:28;;;;;;;95.22;55.80;;;;;;;10.27;67.35;99085.31;4953146;29;20122;-68
2022/11/06 02:29:57;;;;;;;99.72;55.42;;;;;;;10.31;67.88;99089.06;4971764;28;20038;-67
2022/11/06 02:32:39;;;;;;;91.67;55.53;;;;;;;10.32;68.00;99077.56;4992729;28;20409;-67
2022/11/06 02:35:30;;;;;;;100.28;56.22;;;;;;;10.24;67.61;99087.63;4995262;28;20504;-68
2022/11/06 02:38:02;;;;;;;98.00;55.22;;;;;;;10.08;68.34;99097.81;5013588;28;20018;-67
2022/11/06 02:40:32;;;;;;;93.53;54.42;;;;;;;10.13;68.40;99089.19;4995328;28;20048;-67
2022/11/06 02:43:01;;;;;;;86.30;52.47;;;;;;;10.16;68.06;99077.34;5012323;28;20058;-67
2022/11/06 02:45:29;;;;;;;93.40;55.35;;;;;;;9.88;68.72;99072.31;4995687;28;20030;-67
2022/11/06 02:47:56;;;;;;;97.00;53.20;;;;;;;9.90;68.92;99075.59;4995592;28;20053;-67
2022/11/06 02:50:29;;;;;;;95.90;51.80;;;;;;;9.85;70.04;99072.97;4995151;28;20091;-67
2022/11/06 02:53:07;;;;;;;77.22;47.35;;;;;;;9.87;69.49;99083.84;5013291;28;20022;-67
2022/11/06 02:55:44;;;;;;;82.18;49.88;;;;;;;9.90;70.14;99086.78;5013356;28;20077;-67
2022/11/06 02:58:15;;;;;;;87.78;50.53;;;;;;;9.94;69.58;99090.50;5012948;28;20389;-67
2022/11/06 03:00:46;;;;;;;83.32;50.22;;;;;;;10.06;69.25;99095.34;5012404;28;20034;-67
2022/11/06 03:03:26;;;;;;;77.88;47.92;;;;;;;10.11;69.30;99091.53;5012471;28;20504;-67
2022/11/06 03:05:58;;;;;;;87.60;49.83;;;;;;;10.11;68.90;99083.13;4995493;28;20029;-67
2022/11/06 03:08:37;;;;;;;88.93;49.70;;;;;;;9.90;69.81;99075.59;4995343;28;20385;-67
2022/11/06 03:11:21;;;;;;;84.32;50.17;;;;;;;9.99;69.53;99078.31;5011987;28;20030;-67
2022/11/06 03:13:57;;;;;;;77.28;46.70;;;;;;;10.10;69.20;99084.28;5012882;28;20100;-68
2022/11/06 03:16:27;;;;;;;83.07;48.80;;;;;;;10.16;69.04;99088.53;4995213;28;20412;-67
2022/11/06 03:19:02;;;;;;;83.32;47.40;;;;;;;10.21;68.63;99090.31;4994606;28;20029;-67
2022/11/06 03:21:37;;;;;;;89.72;50.45;;;;;;;10.06;68.92;99091.75;4999431;28;20040;-67
2022/11/06 03:24:13;;;;;;;92.93;49.92;;;;;;;10.09;69.54;99088.25;5012747;28;20121;-67
2022/11/06 03:26:45;;;;;;;89.75;50.22;;;;;;;9.98;68.80;99088.66;5012815;28;20543;-67
2022/11/06 03:29:21;;;;;;;88.95;51.88;;;;;;;9.82;70.04;99085.66;4994027;28;20030;-67
2022/11/06 03:31:55;;;;;;;88.43;52.15;;;;;;;9.85;70.81;99088.94;5012644;28;20076;-67
2022/11/06 03:34:34;;;;;;;88.07;51.85;;;;;;;9.95;71.23;99083.75;5012258;28;20032;-67
2022/11/06 03:37:12;;;;;;;84.55;51.28;;;;;;;10.05;70.56;99085.31;5012928;28;20030;-67
2022/11/06 03:39:46;;;;;;;84.10;49.90;;;;;;;10.14;70.22;99096.44;4993040;28;20404;-67
2022/11/06 03:42:16;;;;;;;83.20;49.50;;;;;;;10.10;70.68;99095.47;5011605;28;20116;-67
2022/11/06 03:44:50;;;;;;;88.20;51.70;;;;;;;10.17;69.80;99092.97;5012511;28;20030;-67
2022/11/06 03:47:25;;;;;;;78.78;45.72;;;;;;;10.20;69.92;99095.06;5012066;28;20452;-67
2022/11/06 03:49:58;;;;;;;81.72;50.25;;;;;;;10.22;69.86;99098.34;5011339;28;20029;-67
2022/11/06 03:52:30;;;;;;;82.38;49.40;;;;;;;10.18;70.45;99089.00;5027384;28;20026;-67
2022/11/06 03:55:26;;;;;;;90.35;52.22;;;;;;;10.15;69.93;99074.91;5011940;28;20025;-67
2022/11/06 03:57:56;;;;;;;97.03;53.92;;;;;;;10.10;69.36;99084.28;4973958;28;20042;-67
2022/11/06 04:00:22;;;;;;;89.57;51.55;;;;;;;10.04;69.66;99080.09;4985673;28;20507;-67
2022/11/06 04:02:51;;;;;;;89.07;49.72;;;;;;;10.04;69.59;99088.47;5011163;28;20038;-67
2022/11/06 04:05:23;;;;;;;93.63;51.25;;;;;;;9.42;74.10;99074.91;5011933;28;20550;-67
2022/11/06 04:16:13;;;;;;;94.05;53.75;;;;;;;9.59;73.95;99109.44;5011989;28;20420;-67
2022/11/06 04:18:39;;;;;;;88.70;53.88;;;;;;;9.72;72.87;99102.00;5011820;28;20026;-67
2022/11/06 04:21:24;;;;;;;86.53;51.25;;;;;;;9.86;72.12;99091.38;5010650;28;20045;-67
2022/11/06 04:27:15;;;;;;;96.10;56.35;;;;;;;9.93;71.66;99091.66;5012011;28;20497;-67
2022/11/06 04:30:09;;;;;;;92.65;55.35;;;;;;;9.88;72.10;99097.44;5010529;28;20105;-67
2022/11/06 04:33:02;;;;;;;94.47;53.15;;;;;;;9.75;72.29;99095.72;4993799;28;20057;-67
2022/11/06 04:35:35;;;;;;;101.93;55.13;;;;;;;9.81;71.69;99097.97;5011491;28;20554;-67
2022/11/06 04:38:15;;;;;;;96.78;54.13;;;;;;;9.86;71.18;99102.56;5011580;28;20018;-67
2022/11/06 04:40:52;;;;;;;98.43;54.70;;;;;;;9.73;71.74;99109.22;4993417;28;20449;-67
2022/11/06 04:43:47;;;;;;;106.18;55.45;;;;;;;9.76;71.46;99116.91;4993892;28;20029;-67
2022/11/06 04:46:21;;;;;;;101.20;55.08;;;;;;;9.59;72.70;99098.28;4993435;28;20034;-67
2022/11/06 04:48:48;;;;;;;92.43;53.63;;;;;;;9.47;74.06;99104.59;4993753;28;20528;-67
2022/11/06 04:51:18;;;;;;;92.10;51.35;;;;;;;9.55;73.63;99098.97;4993007;28;20033;-67
2022/11/06 04:53:44;;;;;;;99.35;57.03;;;;;;;9.48;74.35;99098.69;5011462;28;20531;-67
2022/11/06 04:56:12;;;;;;;104.95;56.50;;;;;;;9.64;73.92;99092.53;5011102;28;20030;-67
2022/11/06 04:58:38;;;;;;;97.03;56.10;;;;;;;9.73;73.78;99098.88;5011403;28;20412;-67
2022/11/06 05:01:04;;;;;;;107.40;57.85;;;;;;;9.66;74.21;99093.81;5009816;28;20460;-66
2022/11/06 05:03:29;;;;;;;95.68;56.25;;;;;;;9.46;75.77;99094.59;5009614;28;20096;-68
2022/11/06 05:05:55;;;;;;;92.80;55.00;;;;;;;9.21;77.78;99094.38;5010905;28;20038;-67
2022/11/06 05:08:21;;;;;;;92.20;56.45;;;;;;;9.31;76.10;99084.81;5010754;28;20049;-67
2022/11/06 05:10:46;;;;;;;93.60;50.42;;;;;;;9.54;74.39;99104.91;5010049;28;20084;-67
2022/11/06 05:13:13;;;;;;;93.32;52.03;;;;;;;9.63;73.86;99107.66;5010294;28;20113;-67
2022/11/06 05:15:39;;;;;;;87.13;50.50;;;;;;;9.58;73.87;99105.84;5010845;28;20022;-67
2022/11/06 05:18:05;;;;;;;89.20;49.38;;;;;;;9.38;75.86;99115.81;5009776;28;20511;-67
2022/11/06 05:20:31;;;;;;;82.78;47.42;;;;;;;9.59;74.26;99126.22;5010091;28;20493;-67
2022/11/06 05:22:57;;;;;;;109.57;50.55;;;;;;;9.53;74.86;99122.78;5009425;28;20073;-67
2022/11/06 05:25:28;;;;;;;86.38;50.30;;;;;;;9.50;75.02;99127.09;4997273;28;20026;-67
2022/11/06 05:27:54;;;;;;;81.55;50.88;;;;;;;9.60;75.01;99128.66;4993909;28;20497;-67
2022/11/06 05:30:19;;;;;;;87.38;52.13;;;;;;;9.72;74.83;99124.34;5003458;28;20066;-67
2022/11/06 05:32:45;;;;;;;90.38;53.20;;;;;;;9.77;74.58;99132.50;5015062;28;20026;-67
2022/11/06 05:35:10;;;;;;;95.63;54.17;;;;;;;9.89;73.40;99129.00;5012150;28;20025;-67
2022/11/06 05:37:36;;;;;;;103.38;52.20;;;;;;;9.72;74.84;99125.16;5010125;28;20386;-67
2022/11/06 05:40:03;;;;;;;82.20;52.08;;;;;;;9.58;75.36;99131.00;5009503;28;20022;-67
2022/11/06 05:42:28;;;;;;;88.25;50.65;;;;;;;9.51;75.08;99139.06;4996864;28;20055;-67
2022/11/06 05:44:53;;;;;;;91.65;50.20;;;;;;;9.73;74.02;99142.72;5029337;28;20471;-67
2022/11/06 05:47:19;;;;;;;83.70;49.33;;;;;;;9.70;73.42;99155.38;5013852;28;20057;-67
2022/11/06 05:49:44;;;;;;;80.13;48.65;;;;;;;9.78;73.50;99154.53;5008579;28;20029;-67
2022/11/06 05:52:10;;;;;;;93.38;51.47;;;;;;;9.88;72.65;99158.91;5010624;28;20022;-67
2022/11/06 05:54:35;;;;;;;128.63;52.67;;;;;;;9.66;73.65;99162.81;5001479;28;20062;-65
2022/11/06 05:57:01;;;;;;;93.47;49.67;;;;;;;9.77;73.78;99152.06;5013332;28;20030;-67
2022/11/06 05:59:26;;;;;;;95.20;51.67;;;;;;;9.90;73.12;99159.41;5004936;28;20092;-67
2022/11/06 06:01:52;;;;;;;90.95;48.70;;;;;;;10.06;72.58;99167.19;4999650;28;20053;-67
2022/11/06 06:04:17;;;;;;;114.72;51.40;;;;;;;10.05;73.33;99166.34;5014222;28;20404;-67
2022/11/06 06:06:43;;;;;;;93.95;52.00;;;;;;;10.15;72.31;99167.94;5013852;28;20025;-67
2022/11/06 06:09:08;;;;;;;82.88;47.65;;;;;;;10.16;73.09;99175.19;5014191;28;20084;-67
2022/11/06 06:11:35;;;;;;;110.63;62.15;;;;;;;10.26;73.58;99173.94;5012229;28;20026;-67
2022/11/06 06:14:00;;;;;;;104.85;59.50;;;;;;;10.34;72.73;99186.22;5013855;28;20527;-67
2022/11/06 06:16:26;;;;;;;103.35;56.17;;;;;;;10.39;72.62;99191.63;5013999;28;20025;-67
2022/11/06 06:18:51;;;;;;;87.97;52.28;;;;;;;10.46;72.29;99183.53;5013840;28;20029;-67
2022/11/06 06:21:17;;;;;;;82.85;50.25;;;;;;;10.52;73.20;99178.53;5013222;28;20026;-67
2022/11/06 06:23:43;;;;;;;91.25;48.95;;;;;;;10.52;73.44;99184.97;4993982;28;20032;-67
2022/11/06 06:26:08;;;;;;;88.18;52.85;;;;;;;10.60;72.57;99190.81;4989967;28;20065;-67
2022/11/06 06:28:34;;;;;;;86.90;48.55;;;;;;;10.65;72.79;99197.00;5008742;28;20030;-67
2022/11/06 06:31:04;;;;;;;86.82;50.78;;;;;;;10.61;73.10;99214.81;5009938;28;20072;-67
2022/11/06 06:33:29;;;;;;;76.83;46.53;;;;;;;10.47;75.04;99209.53;5004728;28;20041;-67
2022/11/06 06:35:55;;;;;;;81.13;49.38;;;;;;;10.59;74.15;99203.16;5010681;28;20018;-67
2022/11/06 06:38:20;;;;;;;95.97;51.08;;;;;;;10.58;74.42;99207.13;5008755;28;20412;-67
2022/11/06 06:40:46;;;;;;;94.50;52.17;;;;;;;10.64;74.05;99233.72;5011392;28;20110;-67
2022/11/06 06:43:11;;;;;;;85.13;51.55;;;;;;;10.75;72.88;99237.75;5012807;28;20034;-67
2022/11/06 06:45:36;;;;;;;93.07;51.53;;;;;;;10.78;73.13;99239.88;5025913;28;20409;-67
2022/11/06 06:48:04;;;;;;;117.07;54.25;;;;;;;10.72;74.86;99246.81;5011348;28;20428;-67
2022/11/06 06:50:29;;;;;;;90.05;52.03;;;;;;;10.79;74.86;99237.88;4995481;28;20125;-67
2022/11/06 06:52:59;;;;;;;88.68;54.15;;;;;;;10.71;75.58;99230.38;5012212;28;20109;-67
2022/11/06 06:55:25;;;;;;;84.68;49.20;;;;;;;10.68;75.90;99220.69;4993967;28;20037;-67
2022/11/06 06:58:00;;;;;;;78.13;48.85;;;;;;;10.86;74.83;99221.34;5007665;28;20038;-67
2022/11/06 07:00:27;;;;;;;82.15;49.05;;;;;;;10.93;74.77;99238.44;4993580;28;20029;-67
2022/11/06 07:02:53;;;;;;;84.10;50.90;;;;;;;10.94;75.14;99244.81;4989823;28;20025;-68
2022/11/06 07:05:19;;;;;;;95.50;51.28;;;;;;;10.98;75.83;99251.38;4992689;28;20539;-71
2022/11/06 07:07:45;;;;;;;90.95;51.75;;;;;;;10.89;76.72;99250.66;5013222;28;20040;-67
2022/11/06 07:10:10;;;;;;;90.65;55.03;;;;;;;10.72;77.53;99240.41;5012074;28;20030;-69
2022/11/06 07:12:36;;;;;;;90.20;54.33;;;;;;;10.85;77.15;99253.31;5012834;28;20409;-68
2022/11/06 07:15:01;;;;;;;82.82;52.55;;;;;;;10.97;75.96;99266.50;5010226;28;20473;-68
2022/11/06 07:17:27;;;;;;;94.47;55.35;;;;;;;10.83;76.46;99261.22;5011856;28;20034;-69
2022/11/06 07:19:52;;;;;;;83.82;49.13;;;;;;;10.90;76.80;99260.66;4996461;28;20030;-69
2022/11/06 07:22:18;;;;;;;85.53;49.35;;;;;;;11.00;75.30;99267.81;5009967;28;20036;-72
2022/11/06 07:24:43;;;;;;;74.72;47.80;;;;;;;11.09;75.16;99279.75;5009752;28;20052;-67
2022/11/06 07:27:09;;;;;;;74.38;47.42;;;;;;;11.17;74.22;99278.03;5026325;28;20080;-71
2022/11/06 07:29:34;;;;;;;86.55;48.95;;;;;;;11.10;75.17;99261.81;4991192;28;20025;-71
2022/11/06 07:32:00;;;;;;;91.65;50.97;;;;;;;11.04;75.19;99261.19;5011359;28;20105;-71
2022/11/06 07:34:25;;;;;;;84.68;51.55;;;;;;;11.10;75.03;99267.41;5011725;28;20403;-72
2022/11/06 07:36:51;;;;;;;80.53;49.15;;;;;;;11.09;74.95;99272.16;5026525;28;20456;-70
2022/11/06 07:39:16;;;;;;;82.20;47.17;;;;;;;11.17;75.39;99275.25;5007890;28;20088;-69
2022/11/06 07:41:41;;;;;;;102.90;51.83;;;;;;;11.17;75.46;99269.63;5011484;28;20404;-70
2022/11/06 07:44:07;;;;;;;89.38;48.22;;;;;;;11.29;74.95;99266.09;4998125;28;20037;-68
2022/11/06 07:46:32;;;;;;;87.38;48.25;;;;;;;11.23;75.39;99274.69;5011442;28;20032;-68
2022/11/06 07:48:58;;;;;;;73.63;47.17;;;;;;;11.27;75.95;99282.38;5012075;28;20554;-68
2022/11/06 07:51:23;;;;;;;73.25;45.25;;;;;;;11.35;75.02;99293.53;5010832;28;20030;-68
2022/11/06 07:53:49;;;;;;;93.63;48.13;;;;;;;11.10;77.27;99306.59;5011393;28;20092;-67
2022/11/06 07:56:14;;;;;;;80.03;47.67;;;;;;;10.95;78.37;99317.25;5002513;28;20029;-68
2022/11/06 07:58:40;;;;;;;87.95;53.72;;;;;;;10.91;79.20;99321.06;5012164;28;20080;-67
2022/11/06 08:01:05;;;;;;;100.00;57.53;;;;;;;10.99;79.75;99325.78;5010258;28;20492;-68
2022/11/06 08:03:31;;;;;;;87.10;49.78;;;;;;;11.01;80.14;99325.44;5012223;28;20106;-69
2022/11/06 08:06:02;;;;;;;83.25;49.20;;;;;;;10.91;81.30;99324.66;5011973;28;20025;-67
2022/11/06 08:08:28;;;;;;;102.72;53.13;;;;;;;10.89;82.82;99329.78;4994308;28;20425;-68
2022/11/06 08:10:53;;;;;;;106.63;61.42;;;;;;;10.80;83.76;99310.28;5010401;28;20029;-68
2022/11/06 08:13:19;;;;;;;103.28;61.15;;;;;;;10.76;84.12;99309.34;5011807;28;20543;-68
2022/11/06 08:15:45;;;;;;;104.72;63.95;;;;;;;10.79;85.21;99293.81;5011144;28;20025;-68
2022/11/06 08:18:11;;;;;;;111.78;64.97;;;;;;;10.93;84.83;99300.00;4993674;28;20021;-68
2022/11/06 08:20:37;;;;;;;118.40;67.22;;;;;;;11.14;82.68;99292.72;5010628;28;20413;-69
2022/11/06 08:23:05;;;;;;;118.45;64.20;;;;;;;11.08;86.09;99290.13;5011594;28;20064;-67
2022/11/06 08:25:32;;;;;;;104.30;59.10;;;;;;;11.17;86.66;99298.47;5011563;28;20036;-67
2022/11/06 08:28:00;;;;;;;103.22;53.83;;;;;;;11.22;85.82;99300.22;5012043;28;20026;-67
2022/11/06 08:30:26;;;;;;;87.28;52.05;;;;;;;11.26;85.89;99315.19;5010862;28;20021;-68
2022/11/06 08:32:52;;;;;;;98.15;53.42;;;;;;;11.23;86.01;99313.06;4993291;28;20060;-67
2022/11/06 08:35:18;;;;;;;86.20;52.45;;;;;;;11.41;83.41;99310.94;5010834;28;20061;-68
2022/11/06 08:37:44;;;;;;;94.30;50.70;;;;;;;11.36;86.53;99317.56;5011122;28;20116;-67
2022/11/06 08:40:10;;;;;;;88.05;53.35;;;;;;;11.31;87.00;99311.34;5010185;28;20109;-67
2022/11/06 08:42:35;;;;;;;81.40;50.78;;;;;;;11.31;88.06;99306.56;5008215;28;20044;-67
2022/11/06 08:45:01;;;;;;;81.88;48.35;;;;;;;11.34;88.52;99305.88;5009655;28;20112;-66
2022/11/06 08:47:26;;;;;;;84.22;50.45;;;;;;;11.32;88.61;99313.78;4996035;28;20104;-67
2022/11/06 08:49:52;;;;;;;88.45;55.58;;;;;;;11.44;87.33;99327.03;4991748;28;20026;-67
2022/11/06 08:52:17;;;;;;;105.30;55.67;;;;;;;11.59;87.08;99335.94;5008841;28;20045;-65
2022/11/06 08:54:43;;;;;;;91.78;52.85;;;;;;;11.64;86.65;99333.75;5008527;28;20021;-66
2022/11/06 08:57:08;;;;;;;89.93;53.85;;;;;;;11.52;88.67;99322.50;5008453;28;20025;-68
2022/11/06 08:59:34;;;;;;;120.97;62.35;;;;;;;11.36;91.22;99323.16;5008186;28;20053;-67
2022/11/06 09:01:59;;;;;;;96.05;59.58;;;;;;;11.28;93.20;99332.44;5011700;28;20038;-66
2022/11/06 09:04:25;;;;;;;84.00;54.47;;;;;;;11.24;93.89;99325.91;5012497;28;20033;-67
2022/11/06 09:06:51;;;;;;;84.10;53.80;;;;;;;11.23;94.05;99329.88;5011823;28;20104;-68
2022/11/06 09:09:16;;;;;;;91.65;53.75;;;;;;;11.29;93.83;99339.69;5011878;28;20756;-67
2022/11/06 09:11:42;;;;;;;86.68;54.47;;;;;;;11.03;95.41;99343.53;5012281;28;20030;-65
2022/11/06 09:14:08;;;;;;;92.20;55.58;;;;;;;11.15;94.53;99341.97;5013453;28;20501;-66
2022/11/06 09:16:33;;;;;;;84.78;52.97;;;;;;;11.41;92.08;99352.09;5015901;28;20026;-66
2022/11/06 09:18:58;;;;;;;80.55;54.28;;;;;;;11.55;91.27;99360.22;5015342;28;20455;-65
2022/11/06 09:21:24;;;;;;;82.07;50.75;;;;;;;11.72;88.98;99371.25;5011130;28;20025;-69
2022/11/06 09:23:50;;;;;;;73.95;48.05;;;;;;;11.56;89.46;99365.47;5015759;28;20025;-67
2022/11/06 09:26:16;;;;;;;73.63;48.20;;;;;;;11.76;88.81;99372.19;5015666;28;20491;-68
2022/11/06 09:28:42;;;;;;;78.15;48.25;;;;;;;11.71;89.19;99374.41;5015403;28;20026;-69
2022/11/06 09:31:07;;;;;;;83.60;52.60;;;;;;;11.79;89.32;99367.88;5014074;28;20046;-69
2022/11/06 09:33:34;;;;;;;82.68;54.63;;;;;;;11.86;88.48;99351.31;5015379;28;20033;-69
2022/11/06 09:36:02;;;;;;;73.53;50.50;;;;;;;11.59;91.30;99330.34;5015531;28;20373;-69
2022/11/06 09:38:28;;;;;;;71.35;46.20;;;;;;;11.41;91.74;99316.53;5014256;28;20034;-69
2022/11/06 09:40:56;;;;;;;82.57;47.78;;;;;;;11.29;94.46;99310.88;5014283;28;20087;-67
2022/11/06 09:43:25;;;;;;;77.60;50.55;;;;;;;11.21;95.96;99318.16;4996588;28;20065;-68
2022/11/06 09:45:52;;;;;;;80.63;50.47;;;;;;;11.15;97.74;99322.34;5015082;28;20472;-67
2022/11/06 09:48:29;;;;;;;78.50;47.75;;;;;;;11.17;97.19;99331.22;5015197;28;20179;-67
2022/11/06 09:51:02;;;;;;;71.85;46.00;;;;;;;11.13;97.68;99330.28;5014529;28;20034;-69
2022/11/06 09:53:38;;;;;;;82.30;49.70;;;;;;;11.13;99.35;99324.69;5013963;28;20492;-69
2022/11/06 09:56:05;;;;;;;85.30;51.90;;;;;;;11.14;99.36;99331.91;5014790;28;20037;-68
2022/11/06 09:58:36;;;;;;;84.80;53.10;;;;;;;11.18;99.60;99327.25;4997068;28;20452;-68
2022/11/06 10:01:12;;;;;;;89.05;54.25;;;;;;;11.24;99.96;99323.09;4995542;28;20120;-66
2022/11/06 10:03:48;;;;;;;79.40;53.78;;;;;;;11.25;100.00;99310.75;5014078;28;20061;-67
2022/11/06 10:06:14;;;;;;;82.18;55.63;;;;;;;11.38;100.00;99323.63;4992783;28;20113;-67
2022/11/06 10:08:42;;;;;;;87.75;52.88;;;;;;;11.41;99.95;99332.50;4996385;28;20141;-68
2022/11/06 10:11:14;;;;;;;78.32;51.60;;;;;;;11.52;99.69;99333.72;4996116;28;20385;-69
2022/11/06 10:13:49;;;;;;;76.00;50.25;;;;;;;11.70;99.01;99331.53;5014055;28;20036;-67
2022/11/06 10:16:35;;;;;;;82.35;51.80;;;;;;;11.90;97.47;99334.63;5029690;28;20478;-67
2022/11/06 10:19:14;;;;;;;81.85;48.00;;;;;;;11.97;95.82;99329.25;5016763;28;20026;-68
2022/11/06 10:22:16;;;;;;;77.68;49.45;;;;;;;12.08;95.49;99329.69;5011396;28;20030;-65
2022/11/06 10:25:07;;;;;;;400.05;242.73;;;;;;;12.26;95.22;99335.06;4992440;28;20465;-68
2022/11/06 10:27:41;;;;;;;1999.90;999.90;;;;;;;12.48;96.18;99333.75;5003549;28;20037;-68
2022/11/06 10:30:16;;;;;;;1999.90;999.90;;;;;;;12.72;98.75;99330.13;5008512;28;20116;-69
2022/11/06 10:33:22;;;;;;;1999.90;999.90;;;;;;;12.92;97.46;99319.91;5009352;28;20026;-69
2022/11/06 10:36:06;;;;;;;1999.90;999.90;;;;;;;13.20;97.42;99323.91;5011643;28;20029;-69
2022/11/06 10:38:37;;;;;;;1999.90;999.90;;;;;;;13.29;99.09;99318.97;5012318;28;20045;-75
2022/11/06 10:41:03;;;;;;;1999.90;999.90;;;;;;;13.52;99.69;99303.56;5004343;28;20022;-69
2022/11/06 10:44:01;;;;;;;1999.90;999.90;;;;;;;13.65;98.40;99312.75;5013808;28;20033;-68
2022/11/06 10:46:43;;;;;;;1999.90;999.90;;;;;;;13.61;94.69;99313.47;4987365;28;20135;-69
2022/11/06 10:49:29;;;;;;;1999.90;972.50;;;;;;;13.71;93.33;99316.94;5013730;28;20057;-72
2022/11/06 10:52:12;;;;;;;1999.90;999.90;;;;;;;13.81;91.42;99321.19;5012442;28;20033;-71
2022/11/06 10:54:49;;;;;;;1999.90;917.45;;;;;;;13.79;89.57;99312.31;5006466;28;20030;-77
2022/11/06 10:57:21;;;;;;;1999.90;999.90;;;;;;;13.76;91.43;99308.25;5024105;28;20051;-75
2022/11/06 10:59:48;;;;;;;1999.90;999.90;;;;;;;13.76;92.62;99308.25;4996076;28;20040;-70
2022/11/06 11:02:38;;;;;;;1999.90;999.90;;;;;;;13.80;94.87;99303.53;5028644;28;20083;-73
2022/11/06 11:05:16;;;;;;;1999.90;999.90;;;;;;;13.90;90.08;99313.41;5005847;28;20406;-70
2022/11/06 11:07:43;;;;;;;1999.90;999.90;;;;;;;13.91;89.75;99298.16;5014320;28;20095;-69
2022/11/06 11:10:44;;;;;;;1999.90;999.90;;;;;;;13.87;87.30;99306.50;5006087;28;20030;-71
2022/11/06 11:13:19;;;;;;;1999.90;999.90;;;;;;;13.86;87.12;99304.88;4944257;28;20031;-69
2022/11/06 11:15:48;;;;;;;1999.90;928.67;;;;;;;13.92;86.59;99304.63;5002295;28;20049;-74
2022/11/06 11:18:16;;;;;;;1999.90;999.90;;;;;;;13.94;87.97;99302.25;5009948;28;20048;-68
2022/11/06 11:20:47;;;;;;;1999.90;925.08;;;;;;;13.91;85.85;99298.16;4992623;28;20067;-70
2022/11/06 11:23:17;;;;;;;947.42;603.50;;;;;;;13.65;87.16;99284.66;5006997;28;20583;-68
2022/11/06 11:25:52;;;;;;;125.25;80.47;;;;;;;13.14;89.18;99277.59;5006627;28;20562;-68
2022/11/06 11:28:23;;;;;;;80.57;52.60;;;;;;;12.85;92.27;99277.59;5020703;28;20042;-68
2022/11/06 11:31:00;;;;;;;73.75;48.65;;;;;;;12.70;93.53;99281.13;5000154;28;20044;-68
2022/11/06 11:33:26;;;;;;;101.32;57.58;;;;;;;12.71;94.84;99277.97;4992583;28;20038;-68
2022/11/06 11:35:53;;;;;;;82.18;52.35;;;;;;;12.68;94.76;99280.66;5008917;28;20044;-69
2022/11/06 11:38:20;;;;;;;79.65;48.92;;;;;;;12.73;95.56;99277.59;5010232;28;20034;-68
2022/11/06 11:40:47;;;;;;;78.50;49.47;;;;;;;12.74;95.64;99282.06;5010337;28;20034;-66
2022/11/06 11:43:18;;;;;;;71.60;48.97;;;;;;;12.58;95.37;99279.97;5010698;28;20029;-69